sensor_id;sensor_type;location;lat;lon;timestamp;P1;durP1;ratioP1;P2;durP2;ratioP2
6280;SDS011;3173;48.204;11.612;2022-07-24T00:01:53;12.20;;;8.53;;
6280;SDS011;3173;48.204;11.612;2022-07-24T00:04:19;11.20;;;9.30;;
6280;SDS011;3173;48.204;11.612;2022-07-24T00:06:45;12.87;;;8.87;;
6280;SDS011;3173;48.204;11.612;2022-07-24T00:09:11;10.73;;;8.97;;
6280;SDS011;3173;48.204;11.612;2022-07-24T00:11:37;10.70;;;8.63;;
6280;SDS011;3173;48.204;11.612;2022-07-24T00:14:03;10.97;;;9.17;;
6280;SDS011;3173;48.204;11.612;2022-07-24T00:16:29;10.70;;;8.93;;
6280;SDS011;3173;48.204;11.612;2022-07-24T00:18:56;11.30;;;10.07;;
6280;SDS011;3173;48.204;11.612;2022-07-24T00:21:22;10.07;;;8.43;;
6280;SDS011;3173;48.204;11.612;2022-07-24T00:23:48;10.93;;;8.87;;
6280;SDS011;3173;48.204;11.612;2022-07-24T00:26:13;10.67;;;9.27;;
6280;SDS011;3173;48.204;11.612;2022-07-24T00:28:40;10.33;;;9.03;;
6280;SDS011;3173;48.204;11.612;2022-07-24T00:31:06;10.20;;;8.70;;
6280;SDS011;3173;48.204;11.612;2022-07-24T00:33:32;9.77;;;8.77;;
6280;SDS011;3173;48.204;11.612;2022-07-24T00:35:58;10.73;;;8.50;;
6280;SDS011;3173;48.204;11.612;2022-07-24T00:38:24;10.20;;;8.33;;
6280;SDS011;3173;48.204;11.612;2022-07-24T00:40:50;12.77;;;8.73;;
6280;SDS011;3173;48.204;11.612;2022-07-24T00:43:16;11.30;;;8.50;;
6280;SDS011;3173;48.204;11.612;2022-07-24T00:45:42;9.80;;;8.00;;
6280;SDS011;3173;48.204;11.612;2022-07-24T00:48:08;11.20;;;8.60;;
6280;SDS011;3173;48.204;11.612;2022-07-24T00:50:35;10.70;;;9.43;;
6280;SDS011;3173;48.204;11.612;2022-07-24T00:53:01;10.10;;;9.10;;
6280;SDS011;3173;48.204;11.612;2022-07-24T00:55:28;10.20;;;8.60;;
6280;SDS011;3173;48.204;11.612;2022-07-24T00:57:54;10.17;;;8.70;;
6280;SDS011;3173;48.204;11.612;2022-07-24T01:00:20;8.70;;;7.80;;
6280;SDS011;3173;48.204;11.612;2022-07-24T01:02:46;11.67;;;9.43;;
6280;SDS011;3173;48.204;11.612;2022-07-24T01:05:13;10.13;;;8.17;;
6280;SDS011;3173;48.204;11.612;2022-07-24T01:07:39;11.80;;;8.93;;
6280;SDS011;3173;48.204;11.612;2022-07-24T01:10:05;11.33;;;9.20;;
6280;SDS011;3173;48.204;11.612;2022-07-24T01:12:31;10.27;;;8.27;;
6280;SDS011;3173;48.204;11.612;2022-07-24T01:14:57;9.07;;;8.00;;
6280;SDS011;3173;48.204;11.612;2022-07-24T01:17:23;10.07;;;8.87;;
6280;SDS011;3173;48.204;11.612;2022-07-24T01:19:49;9.67;;;8.60;;
6280;SDS011;3173;48.204;11.612;2022-07-24T01:22:15;10.40;;;8.53;;
6280;SDS011;3173;48.204;11.612;2022-07-24T01:24:42;9.83;;;8.83;;
6280;SDS011;3173;48.204;11.612;2022-07-24T01:27:08;10.20;;;9.10;;
6280;SDS011;3173;48.204;11.612;2022-07-24T01:29:34;9.90;;;8.07;;
6280;SDS011;3173;48.204;11.612;2022-07-24T01:32:00;10.43;;;8.80;;
6280;SDS011;3173;48.204;11.612;2022-07-24T01:34:26;9.30;;;8.30;;
6280;SDS011;3173;48.204;11.612;2022-07-24T01:36:51;12.30;;;9.23;;
6280;SDS011;3173;48.204;11.612;2022-07-24T01:39:17;11.30;;;9.03;;
6280;SDS011;3173;48.204;11.612;2022-07-24T01:41:43;10.57;;;9.07;;
6280;SDS011;3173;48.204;11.612;2022-07-24T01:44:09;9.80;;;8.80;;
6280;SDS011;3173;48.204;11.612;2022-07-24T01:46:35;12.07;;;9.00;;
6280;SDS011;3173;48.204;11.612;2022-07-24T01:49:01;10.23;;;8.80;;
6280;SDS011;3173;48.204;11.612;2022-07-24T01:51:27;11.67;;;9.23;;
6280;SDS011;3173;48.204;11.612;2022-07-24T01:53:53;10.30;;;9.20;;
6280;SDS011;3173;48.204;11.612;2022-07-24T01:56:19;12.63;;;9.90;;
6280;SDS011;3173;48.204;11.612;2022-07-24T01:58:45;10.20;;;9.20;;
6280;SDS011;3173;48.204;11.612;2022-07-24T02:01:11;12.33;;;9.40;;
6280;SDS011;3173;48.204;11.612;2022-07-24T02:03:37;12.07;;;9.30;;
6280;SDS011;3173;48.204;11.612;2022-07-24T02:06:03;10.70;;;9.53;;
6280;SDS011;3173;48.204;11.612;2022-07-24T02:08:29;13.10;;;9.90;;
6280;SDS011;3173;48.204;11.612;2022-07-24T02:10:55;12.90;;;10.10;;
6280;SDS011;3173;48.204;11.612;2022-07-24T02:13:21;12.37;;;9.03;;
6280;SDS011;3173;48.204;11.612;2022-07-24T02:15:47;13.37;;;10.53;;
6280;SDS011;3173;48.204;11.612;2022-07-24T02:18:13;13.17;;;9.27;;
6280;SDS011;3173;48.204;11.612;2022-07-24T02:20:39;10.63;;;9.20;;
6280;SDS011;3173;48.204;11.612;2022-07-24T02:23:05;15.60;;;9.43;;
6280;SDS011;3173;48.204;11.612;2022-07-24T02:25:31;10.90;;;9.70;;
6280;SDS011;3173;48.204;11.612;2022-07-24T02:27:57;16.13;;;10.40;;
6280;SDS011;3173;48.204;11.612;2022-07-24T02:30:23;10.93;;;9.73;;
6280;SDS011;3173;48.204;11.612;2022-07-24T02:32:49;11.20;;;9.50;;
6280;SDS011;3173;48.204;11.612;2022-07-24T02:35:15;14.17;;;10.30;;
6280;SDS011;3173;48.204;11.612;2022-07-24T02:37:42;11.00;;;9.50;;
6280;SDS011;3173;48.204;11.612;2022-07-24T02:40:09;11.43;;;9.20;;
6280;SDS011;3173;48.204;11.612;2022-07-24T02:42:35;9.93;;;8.93;;
6280;SDS011;3173;48.204;11.612;2022-07-24T02:45:01;12.83;;;9.87;;
6280;SDS011;3173;48.204;11.612;2022-07-24T02:47:28;11.63;;;9.27;;
6280;SDS011;3173;48.204;11.612;2022-07-24T02:49:54;11.60;;;9.07;;
6280;SDS011;3173;48.204;11.612;2022-07-24T02:52:20;10.83;;;9.73;;
6280;SDS011;3173;48.204;11.612;2022-07-24T02:54:45;13.87;;;10.23;;
6280;SDS011;3173;48.204;11.612;2022-07-24T02:57:11;11.00;;;9.80;;
6280;SDS011;3173;48.204;11.612;2022-07-24T02:59:37;11.10;;;9.87;;
6280;SDS011;3173;48.204;11.612;2022-07-24T03:02:03;12.87;;;9.80;;
6280;SDS011;3173;48.204;11.612;2022-07-24T03:04:29;12.80;;;9.33;;
6280;SDS011;3173;48.204;11.612;2022-07-24T03:06:55;11.97;;;10.00;;
6280;SDS011;3173;48.204;11.612;2022-07-24T03:09:21;11.80;;;9.60;;
6280;SDS011;3173;48.204;11.612;2022-07-24T03:11:47;14.90;;;10.60;;
6280;SDS011;3173;48.204;11.612;2022-07-24T03:14:13;12.00;;;10.03;;
6280;SDS011;3173;48.204;11.612;2022-07-24T03:16:39;11.50;;;10.30;;
6280;SDS011;3173;48.204;11.612;2022-07-24T03:19:05;11.87;;;9.60;;
6280;SDS011;3173;48.204;11.612;2022-07-24T03:21:31;12.40;;;9.83;;
6280;SDS011;3173;48.204;11.612;2022-07-24T03:23:57;9.40;;;8.50;;
6280;SDS011;3173;48.204;11.612;2022-07-24T03:26:23;11.80;;;9.80;;
6280;SDS011;3173;48.204;11.612;2022-07-24T03:28:49;11.57;;;9.73;;
6280;SDS011;3173;48.204;11.612;2022-07-24T03:31:15;11.30;;;9.50;;
6280;SDS011;3173;48.204;11.612;2022-07-24T03:33:41;11.03;;;9.17;;
6280;SDS011;3173;48.204;11.612;2022-07-24T03:36:07;11.27;;;9.70;;
6280;SDS011;3173;48.204;11.612;2022-07-24T03:38:34;12.90;;;10.03;;
6280;SDS011;3173;48.204;11.612;2022-07-24T03:41:00;13.57;;;10.23;;
6280;SDS011;3173;48.204;11.612;2022-07-24T03:43:26;11.87;;;9.80;;
6280;SDS011;3173;48.204;11.612;2022-07-24T03:45:52;12.37;;;10.93;;
6280;SDS011;3173;48.204;11.612;2022-07-24T03:48:18;11.20;;;9.70;;
6280;SDS011;3173;48.204;11.612;2022-07-24T03:50:44;12.10;;;10.70;;
6280;SDS011;3173;48.204;11.612;2022-07-24T03:53:10;14.97;;;9.80;;
6280;SDS011;3173;48.204;11.612;2022-07-24T03:55:36;16.67;;;10.30;;
6280;SDS011;3173;48.204;11.612;2022-07-24T03:58:02;12.30;;;10.70;;
6280;SDS011;3173;48.204;11.612;2022-07-24T04:00:28;11.97;;;10.50;;
6280;SDS011;3173;48.204;11.612;2022-07-24T04:02:54;17.57;;;11.17;;
6280;SDS011;3173;48.204;11.612;2022-07-24T04:05:20;13.80;;;10.80;;
6280;SDS011;3173;48.204;11.612;2022-07-24T04:07:46;13.43;;;10.43;;
6280;SDS011;3173;48.204;11.612;2022-07-24T04:10:12;12.10;;;10.70;;
6280;SDS011;3173;48.204;11.612;2022-07-24T04:12:38;12.87;;;11.30;;
6280;SDS011;3173;48.204;11.612;2022-07-24T04:15:04;13.13;;;10.60;;
6280;SDS011;3173;48.204;11.612;2022-07-24T04:17:30;12.33;;;10.03;;
6280;SDS011;3173;48.204;11.612;2022-07-24T04:19:56;13.70;;;12.13;;
6280;SDS011;3173;48.204;11.612;2022-07-24T04:22:22;12.50;;;11.20;;
6280;SDS011;3173;48.204;11.612;2022-07-24T04:24:48;14.80;;;11.83;;
6280;SDS011;3173;48.204;11.612;2022-07-24T04:27:14;16.43;;;11.80;;
6280;SDS011;3173;48.204;11.612;2022-07-24T04:29:40;13.23;;;11.60;;
6280;SDS011;3173;48.204;11.612;2022-07-24T04:32:06;11.67;;;10.50;;
6280;SDS011;3173;48.204;11.612;2022-07-24T04:34:32;13.30;;;10.80;;
6280;SDS011;3173;48.204;11.612;2022-07-24T04:36:57;13.00;;;11.03;;
6280;SDS011;3173;48.204;11.612;2022-07-24T04:39:23;13.73;;;11.70;;
6280;SDS011;3173;48.204;11.612;2022-07-24T04:41:49;15.77;;;12.83;;
6280;SDS011;3173;48.204;11.612;2022-07-24T04:44:15;14.50;;;11.60;;
6280;SDS011;3173;48.204;11.612;2022-07-24T04:46:41;12.83;;;11.43;;
6280;SDS011;3173;48.204;11.612;2022-07-24T04:49:07;16.10;;;12.27;;
6280;SDS011;3173;48.204;11.612;2022-07-24T04:51:33;15.77;;;13.80;;
6280;SDS011;3173;48.204;11.612;2022-07-24T04:53:59;17.27;;;13.40;;
6280;SDS011;3173;48.204;11.612;2022-07-24T04:56:25;15.50;;;12.33;;
6280;SDS011;3173;48.204;11.612;2022-07-24T04:58:55;15.77;;;12.40;;
6280;SDS011;3173;48.204;11.612;2022-07-24T05:01:21;16.20;;;12.00;;
6280;SDS011;3173;48.204;11.612;2022-07-24T05:03:47;21.27;;;13.93;;
6280;SDS011;3173;48.204;11.612;2022-07-24T05:06:13;18.73;;;12.87;;
6280;SDS011;3173;48.204;11.612;2022-07-24T05:08:39;14.93;;;12.33;;
6280;SDS011;3173;48.204;11.612;2022-07-24T05:11:05;16.53;;;12.93;;
6280;SDS011;3173;48.204;11.612;2022-07-24T05:13:30;16.30;;;13.07;;
6280;SDS011;3173;48.204;11.612;2022-07-24T05:15:56;16.33;;;13.40;;
6280;SDS011;3173;48.204;11.612;2022-07-24T05:18:22;15.80;;;13.70;;
6280;SDS011;3173;48.204;11.612;2022-07-24T05:20:48;16.67;;;13.00;;
6280;SDS011;3173;48.204;11.612;2022-07-24T05:23:14;17.37;;;12.80;;
6280;SDS011;3173;48.204;11.612;2022-07-24T05:25:40;19.43;;;14.20;;
6280;SDS011;3173;48.204;11.612;2022-07-24T05:28:06;15.90;;;13.00;;
6280;SDS011;3173;48.204;11.612;2022-07-24T05:30:32;15.67;;;12.80;;
6280;SDS011;3173;48.204;11.612;2022-07-24T05:32:58;16.80;;;13.50;;
6280;SDS011;3173;48.204;11.612;2022-07-24T05:35:24;14.97;;;12.37;;
6280;SDS011;3173;48.204;11.612;2022-07-24T05:37:50;14.60;;;12.90;;
6280;SDS011;3173;48.204;11.612;2022-07-24T05:40:16;17.70;;;13.70;;
6280;SDS011;3173;48.204;11.612;2022-07-24T05:42:42;14.07;;;12.20;;
6280;SDS011;3173;48.204;11.612;2022-07-24T05:45:08;18.73;;;13.00;;
6280;SDS011;3173;48.204;11.612;2022-07-24T05:47:35;15.83;;;12.13;;
6280;SDS011;3173;48.204;11.612;2022-07-24T05:50:02;17.23;;;12.93;;
6280;SDS011;3173;48.204;11.612;2022-07-24T05:52:28;14.97;;;11.63;;
6280;SDS011;3173;48.204;11.612;2022-07-24T05:54:54;14.47;;;11.63;;
6280;SDS011;3173;48.204;11.612;2022-07-24T05:57:20;14.57;;;12.17;;
6280;SDS011;3173;48.204;11.612;2022-07-24T05:59:46;16.43;;;11.80;;
6280;SDS011;3173;48.204;11.612;2022-07-24T06:02:11;14.80;;;11.33;;
6280;SDS011;3173;48.204;11.612;2022-07-24T06:04:37;16.17;;;11.53;;
6280;SDS011;3173;48.204;11.612;2022-07-24T06:07:07;13.80;;;11.47;;
6280;SDS011;3173;48.204;11.612;2022-07-24T06:09:33;15.30;;;10.93;;
6280;SDS011;3173;48.204;11.612;2022-07-24T06:11:59;13.17;;;10.97;;
6280;SDS011;3173;48.204;11.612;2022-07-24T06:14:25;13.53;;;11.07;;
6280;SDS011;3173;48.204;11.612;2022-07-24T06:16:51;14.10;;;10.77;;
6280;SDS011;3173;48.204;11.612;2022-07-24T06:19:16;12.60;;;10.50;;
6280;SDS011;3173;48.204;11.612;2022-07-24T06:21:42;14.70;;;11.30;;
6280;SDS011;3173;48.204;11.612;2022-07-24T06:24:08;11.90;;;10.70;;
6280;SDS011;3173;48.204;11.612;2022-07-24T06:26:34;15.20;;;11.83;;
6280;SDS011;3173;48.204;11.612;2022-07-24T06:29:00;11.17;;;9.97;;
6280;SDS011;3173;48.204;11.612;2022-07-24T06:31:26;11.70;;;10.17;;
6280;SDS011;3173;48.204;11.612;2022-07-24T06:33:52;15.53;;;10.60;;
6280;SDS011;3173;48.204;11.612;2022-07-24T06:36:18;15.20;;;11.17;;
6280;SDS011;3173;48.204;11.612;2022-07-24T06:38:44;12.27;;;9.90;;
6280;SDS011;3173;48.204;11.612;2022-07-24T06:41:10;13.87;;;10.43;;
6280;SDS011;3173;48.204;11.612;2022-07-24T06:43:36;13.27;;;9.73;;
6280;SDS011;3173;48.204;11.612;2022-07-24T06:46:02;11.37;;;9.93;;
6280;SDS011;3173;48.204;11.612;2022-07-24T06:48:29;13.23;;;10.73;;
6280;SDS011;3173;48.204;11.612;2022-07-24T06:50:55;15.00;;;10.17;;
6280;SDS011;3173;48.204;11.612;2022-07-24T06:53:21;13.97;;;10.87;;
6280;SDS011;3173;48.204;11.612;2022-07-24T06:55:47;11.03;;;9.67;;
6280;SDS011;3173;48.204;11.612;2022-07-24T06:58:13;21.70;;;13.77;;
6280;SDS011;3173;48.204;11.612;2022-07-24T07:00:39;14.67;;;9.63;;
6280;SDS011;3173;48.204;11.612;2022-07-24T07:03:05;13.97;;;10.53;;
6280;SDS011;3173;48.204;11.612;2022-07-24T07:05:31;11.43;;;9.10;;
6280;SDS011;3173;48.204;11.612;2022-07-24T07:07:57;11.20;;;8.93;;
6280;SDS011;3173;48.204;11.612;2022-07-24T07:10:23;12.50;;;9.10;;
6280;SDS011;3173;48.204;11.612;2022-07-24T07:12:49;11.83;;;8.93;;
6280;SDS011;3173;48.204;11.612;2022-07-24T07:15:15;10.77;;;8.70;;
6280;SDS011;3173;48.204;11.612;2022-07-24T07:17:41;11.43;;;8.63;;
6280;SDS011;3173;48.204;11.612;2022-07-24T07:20:08;9.63;;;8.60;;
6280;SDS011;3173;48.204;11.612;2022-07-24T07:22:34;11.90;;;8.30;;
6280;SDS011;3173;48.204;11.612;2022-07-24T07:25:00;11.80;;;8.47;;
6280;SDS011;3173;48.204;11.612;2022-07-24T07:27:26;9.77;;;8.67;;
6280;SDS011;3173;48.204;11.612;2022-07-24T07:29:52;15.67;;;8.07;;
6280;SDS011;3173;48.204;11.612;2022-07-24T07:32:18;9.60;;;7.63;;
6280;SDS011;3173;48.204;11.612;2022-07-24T07:34:44;9.27;;;7.50;;
6280;SDS011;3173;48.204;11.612;2022-07-24T07:37:10;11.10;;;6.93;;
6280;SDS011;3173;48.204;11.612;2022-07-24T07:39:36;10.43;;;7.43;;
6280;SDS011;3173;48.204;11.612;2022-07-24T07:42:02;9.47;;;6.97;;
6280;SDS011;3173;48.204;11.612;2022-07-24T07:44:28;10.73;;;7.07;;
6280;SDS011;3173;48.204;11.612;2022-07-24T07:46:54;10.07;;;7.33;;
6280;SDS011;3173;48.204;11.612;2022-07-24T07:49:20;9.00;;;7.10;;
6280;SDS011;3173;48.204;11.612;2022-07-24T07:51:46;8.67;;;7.20;;
6280;SDS011;3173;48.204;11.612;2022-07-24T07:54:13;10.80;;;7.37;;
6280;SDS011;3173;48.204;11.612;2022-07-24T07:56:39;7.50;;;6.70;;
6280;SDS011;3173;48.204;11.612;2022-07-24T07:59:05;7.67;;;6.83;;
6280;SDS011;3173;48.204;11.612;2022-07-24T08:01:31;7.90;;;6.20;;
6280;SDS011;3173;48.204;11.612;2022-07-24T08:03:57;12.50;;;6.90;;
6280;SDS011;3173;48.204;11.612;2022-07-24T08:06:23;9.40;;;7.13;;
6280;SDS011;3173;48.204;11.612;2022-07-24T08:08:49;11.37;;;6.70;;
6280;SDS011;3173;48.204;11.612;2022-07-24T08:11:15;11.67;;;7.63;;
6280;SDS011;3173;48.204;11.612;2022-07-24T08:13:41;9.70;;;6.90;;
6280;SDS011;3173;48.204;11.612;2022-07-24T08:16:07;10.13;;;7.00;;
6280;SDS011;3173;48.204;11.612;2022-07-24T08:18:33;10.77;;;6.90;;
6280;SDS011;3173;48.204;11.612;2022-07-24T08:20:59;11.27;;;6.50;;
6280;SDS011;3173;48.204;11.612;2022-07-24T08:23:25;8.57;;;6.70;;
6280;SDS011;3173;48.204;11.612;2022-07-24T08:25:51;9.67;;;6.80;;
6280;SDS011;3173;48.204;11.612;2022-07-24T08:28:17;7.93;;;6.30;;
6280;SDS011;3173;48.204;11.612;2022-07-24T08:30:43;6.97;;;6.27;;
6280;SDS011;3173;48.204;11.612;2022-07-24T08:33:09;11.20;;;6.50;;
6280;SDS011;3173;48.204;11.612;2022-07-24T08:35:35;7.10;;;6.37;;
6280;SDS011;3173;48.204;11.612;2022-07-24T08:38:02;8.77;;;6.10;;
6280;SDS011;3173;48.204;11.612;2022-07-24T08:40:32;9.07;;;6.30;;
6280;SDS011;3173;48.204;11.612;2022-07-24T08:42:59;9.53;;;6.57;;
6280;SDS011;3173;48.204;11.612;2022-07-24T08:45:26;7.60;;;6.00;;
6280;SDS011;3173;48.204;11.612;2022-07-24T08:47:52;7.10;;;6.40;;
6280;SDS011;3173;48.204;11.612;2022-07-24T08:50:18;6.73;;;5.97;;
6280;SDS011;3173;48.204;11.612;2022-07-24T08:52:44;9.20;;;6.13;;
6280;SDS011;3173;48.204;11.612;2022-07-24T08:55:10;6.23;;;5.67;;
6280;SDS011;3173;48.204;11.612;2022-07-24T08:57:37;6.40;;;5.40;;
6280;SDS011;3173;48.204;11.612;2022-07-24T09:00:03;7.83;;;6.17;;
6280;SDS011;3173;48.204;11.612;2022-07-24T09:02:29;7.27;;;5.83;;
6280;SDS011;3173;48.204;11.612;2022-07-24T09:04:59;10.90;;;5.77;;
6280;SDS011;3173;48.204;11.612;2022-07-24T09:07:25;7.63;;;5.43;;
6280;SDS011;3173;48.204;11.612;2022-07-24T09:12:31;10.93;;;5.87;;
6280;SDS011;3173;48.204;11.612;2022-07-24T09:14:58;10.93;;;5.70;;
6280;SDS011;3173;48.204;11.612;2022-07-24T09:17:25;8.57;;;5.63;;
6280;SDS011;3173;48.204;11.612;2022-07-24T09:22:23;7.20;;;5.77;;
6280;SDS011;3173;48.204;11.612;2022-07-24T09:27:34;9.57;;;6.27;;
6280;SDS011;3173;48.204;11.612;2022-07-24T09:30:00;8.80;;;6.03;;
6280;SDS011;3173;48.204;11.612;2022-07-24T09:32:27;7.10;;;6.40;;
6280;SDS011;3173;48.204;11.612;2022-07-24T09:34:53;8.00;;;6.10;;
6280;SDS011;3173;48.204;11.612;2022-07-24T09:37:20;7.83;;;5.93;;
6280;SDS011;3173;48.204;11.612;2022-07-24T09:39:47;10.70;;;6.00;;
6280;SDS011;3173;48.204;11.612;2022-07-24T09:42:13;9.37;;;6.20;;
6280;SDS011;3173;48.204;11.612;2022-07-24T09:44:39;6.63;;;5.90;;
6280;SDS011;3173;48.204;11.612;2022-07-24T09:47:07;7.03;;;6.10;;
6280;SDS011;3173;48.204;11.612;2022-07-24T09:49:33;7.30;;;6.20;;
6280;SDS011;3173;48.204;11.612;2022-07-24T09:52:07;7.83;;;6.93;;
6280;SDS011;3173;48.204;11.612;2022-07-24T09:54:45;6.23;;;5.40;;
6280;SDS011;3173;48.204;11.612;2022-07-24T09:57:25;6.23;;;5.33;;
6280;SDS011;3173;48.204;11.612;2022-07-24T10:02:18;8.27;;;5.73;;
6280;SDS011;3173;48.204;11.612;2022-07-24T10:04:45;6.80;;;5.77;;
6280;SDS011;3173;48.204;11.612;2022-07-24T10:07:13;5.60;;;5.00;;
6280;SDS011;3173;48.204;11.612;2022-07-24T10:09:43;6.23;;;5.63;;
6280;SDS011;3173;48.204;11.612;2022-07-24T10:12:11;5.83;;;5.23;;
6280;SDS011;3173;48.204;11.612;2022-07-24T10:14:38;8.03;;;5.73;;
6280;SDS011;3173;48.204;11.612;2022-07-24T10:17:05;6.73;;;5.60;;
6280;SDS011;3173;48.204;11.612;2022-07-24T10:19:39;9.50;;;5.27;;
6280;SDS011;3173;48.204;11.612;2022-07-24T10:22:08;9.23;;;6.30;;
6280;SDS011;3173;48.204;11.612;2022-07-24T10:27:04;7.00;;;5.97;;
6280;SDS011;3173;48.204;11.612;2022-07-24T10:29:31;6.57;;;5.30;;
6280;SDS011;3173;48.204;11.612;2022-07-24T10:31:58;5.67;;;5.17;;
6280;SDS011;3173;48.204;11.612;2022-07-24T10:37:12;4.80;;;4.40;;
6280;SDS011;3173;48.204;11.612;2022-07-24T10:39:47;6.27;;;5.67;;
6280;SDS011;3173;48.204;11.612;2022-07-24T10:42:16;6.70;;;5.07;;
6280;SDS011;3173;48.204;11.612;2022-07-24T10:44:42;5.80;;;5.30;;
6280;SDS011;3173;48.204;11.612;2022-07-24T10:47:10;7.77;;;5.20;;
6280;SDS011;3173;48.204;11.612;2022-07-24T10:52:12;6.20;;;5.30;;
6280;SDS011;3173;48.204;11.612;2022-07-24T10:54:46;6.40;;;5.57;;
6280;SDS011;3173;48.204;11.612;2022-07-24T10:57:12;7.03;;;6.00;;
6280;SDS011;3173;48.204;11.612;2022-07-24T10:59:38;8.17;;;6.13;;
6280;SDS011;3173;48.204;11.612;2022-07-24T11:02:26;9.67;;;5.80;;
6280;SDS011;3173;48.204;11.612;2022-07-24T11:07:37;6.70;;;5.40;;
6280;SDS011;3173;48.204;11.612;2022-07-24T11:10:04;7.70;;;4.87;;
6280;SDS011;3173;48.204;11.612;2022-07-24T11:12:33;9.30;;;5.40;;
6280;SDS011;3173;48.204;11.612;2022-07-24T11:15:07;6.33;;;5.20;;
6280;SDS011;3173;48.204;11.612;2022-07-24T11:17:52;8.63;;;4.47;;
6280;SDS011;3173;48.204;11.612;2022-07-24T11:20:19;5.90;;;4.60;;
6280;SDS011;3173;48.204;11.612;2022-07-24T11:25:24;6.77;;;5.37;;
6280;SDS011;3173;48.204;11.612;2022-07-24T11:28:13;6.53;;;5.47;;
6280;SDS011;3173;48.204;11.612;2022-07-24T11:30:41;9.23;;;5.27;;
6280;SDS011;3173;48.204;11.612;2022-07-24T11:33:09;5.40;;;4.90;;
6280;SDS011;3173;48.204;11.612;2022-07-24T11:35:36;5.73;;;5.13;;
6280;SDS011;3173;48.204;11.612;2022-07-24T11:38:02;6.87;;;5.47;;
6280;SDS011;3173;48.204;11.612;2022-07-24T11:40:29;5.20;;;4.70;;
6280;SDS011;3173;48.204;11.612;2022-07-24T11:42:56;6.90;;;5.43;;
6280;SDS011;3173;48.204;11.612;2022-07-24T11:45:22;6.17;;;5.20;;
6280;SDS011;3173;48.204;11.612;2022-07-24T11:47:48;6.90;;;5.23;;
6280;SDS011;3173;48.204;11.612;2022-07-24T11:50:14;7.37;;;5.87;;
6280;SDS011;3173;48.204;11.612;2022-07-24T11:52:40;5.97;;;4.93;;
6280;SDS011;3173;48.204;11.612;2022-07-24T11:57:34;5.63;;;5.03;;
6280;SDS011;3173;48.204;11.612;2022-07-24T12:00:00;5.27;;;4.83;;
6280;SDS011;3173;48.204;11.612;2022-07-24T12:02:26;5.63;;;5.13;;
6280;SDS011;3173;48.204;11.612;2022-07-24T12:04:53;7.40;;;5.10;;
6280;SDS011;3173;48.204;11.612;2022-07-24T12:07:20;5.77;;;5.20;;
6280;SDS011;3173;48.204;11.612;2022-07-24T12:09:48;5.73;;;5.23;;
6280;SDS011;3173;48.204;11.612;2022-07-24T12:12:18;6.80;;;5.53;;
6280;SDS011;3173;48.204;11.612;2022-07-24T12:14:44;5.83;;;5.30;;
6280;SDS011;3173;48.204;11.612;2022-07-24T12:17:10;6.33;;;5.53;;
6280;SDS011;3173;48.204;11.612;2022-07-24T12:19:36;5.30;;;4.80;;
6280;SDS011;3173;48.204;11.612;2022-07-24T12:22:02;7.13;;;4.93;;
6280;SDS011;3173;48.204;11.612;2022-07-24T12:24:30;5.83;;;5.10;;
6280;SDS011;3173;48.204;11.612;2022-07-24T12:26:57;6.50;;;4.80;;
6280;SDS011;3173;48.204;11.612;2022-07-24T12:29:24;6.53;;;4.67;;
6280;SDS011;3173;48.204;11.612;2022-07-24T12:32:12;7.33;;;5.57;;
6280;SDS011;3173;48.204;11.612;2022-07-24T12:34:45;5.80;;;5.10;;
6280;SDS011;3173;48.204;11.612;2022-07-24T12:37:18;6.10;;;5.50;;
6280;SDS011;3173;48.204;11.612;2022-07-24T12:39:51;8.00;;;5.90;;
6280;SDS011;3173;48.204;11.612;2022-07-24T12:42:28;7.87;;;5.80;;
6280;SDS011;3173;48.204;11.612;2022-07-24T12:44:54;5.57;;;4.90;;
6280;SDS011;3173;48.204;11.612;2022-07-24T12:47:30;10.83;;;4.80;;
6280;SDS011;3173;48.204;11.612;2022-07-24T12:49:56;8.30;;;5.37;;
6280;SDS011;3173;48.204;11.612;2022-07-24T12:52:23;6.00;;;5.40;;
6280;SDS011;3173;48.204;11.612;2022-07-24T12:54:50;6.40;;;5.37;;
6280;SDS011;3173;48.204;11.612;2022-07-24T12:57:16;6.30;;;5.27;;
6280;SDS011;3173;48.204;11.612;2022-07-24T12:59:46;5.93;;;5.33;;
6280;SDS011;3173;48.204;11.612;2022-07-24T13:02:15;6.20;;;5.03;;
6280;SDS011;3173;48.204;11.612;2022-07-24T13:04:42;7.47;;;5.00;;
6280;SDS011;3173;48.204;11.612;2022-07-24T13:07:08;5.73;;;4.90;;
6280;SDS011;3173;48.204;11.612;2022-07-24T13:09:35;7.97;;;5.30;;
6280;SDS011;3173;48.204;11.612;2022-07-24T13:12:01;5.90;;;5.30;;
6280;SDS011;3173;48.204;11.612;2022-07-24T13:14:27;8.27;;;5.63;;
6280;SDS011;3173;48.204;11.612;2022-07-24T13:16:55;9.90;;;5.53;;
6280;SDS011;3173;48.204;11.612;2022-07-24T13:19:26;8.70;;;5.80;;
6280;SDS011;3173;48.204;11.612;2022-07-24T13:21:52;8.83;;;5.00;;
6280;SDS011;3173;48.204;11.612;2022-07-24T13:24:18;5.50;;;4.40;;
6280;SDS011;3173;48.204;11.612;2022-07-24T13:26:44;6.57;;;5.93;;
6280;SDS011;3173;48.204;11.612;2022-07-24T13:29:11;8.57;;;6.63;;
6280;SDS011;3173;48.204;11.612;2022-07-24T13:31:38;5.40;;;4.90;;
6280;SDS011;3173;48.204;11.612;2022-07-24T13:34:04;7.20;;;5.40;;
6280;SDS011;3173;48.204;11.612;2022-07-24T13:36:31;5.47;;;4.97;;
6280;SDS011;3173;48.204;11.612;2022-07-24T13:38:57;6.80;;;5.27;;
6280;SDS011;3173;48.204;11.612;2022-07-24T13:41:23;5.40;;;4.90;;
6280;SDS011;3173;48.204;11.612;2022-07-24T13:43:49;6.63;;;5.17;;
6280;SDS011;3173;48.204;11.612;2022-07-24T13:46:15;7.67;;;5.20;;
6280;SDS011;3173;48.204;11.612;2022-07-24T13:48:42;5.20;;;4.67;;
6280;SDS011;3173;48.204;11.612;2022-07-24T13:51:09;5.20;;;4.70;;
6280;SDS011;3173;48.204;11.612;2022-07-24T13:53:35;5.40;;;4.77;;
6280;SDS011;3173;48.204;11.612;2022-07-24T13:56:03;6.20;;;5.60;;
6280;SDS011;3173;48.204;11.612;2022-07-24T13:58:30;7.53;;;6.47;;
6280;SDS011;3173;48.204;11.612;2022-07-24T14:00:56;5.40;;;4.90;;
6280;SDS011;3173;48.204;11.612;2022-07-24T14:03:21;7.63;;;5.80;;
6280;SDS011;3173;48.204;11.612;2022-07-24T14:05:47;5.87;;;5.23;;
6280;SDS011;3173;48.204;11.612;2022-07-24T14:08:13;6.00;;;5.40;;
6280;SDS011;3173;48.204;11.612;2022-07-24T14:10:40;5.67;;;4.97;;
6280;SDS011;3173;48.204;11.612;2022-07-24T14:13:05;6.50;;;5.40;;
6280;SDS011;3173;48.204;11.612;2022-07-24T14:15:31;5.30;;;4.80;;
6280;SDS011;3173;48.204;11.612;2022-07-24T14:17:57;5.53;;;5.03;;
6280;SDS011;3173;48.204;11.612;2022-07-24T14:20:23;6.50;;;4.60;;
6280;SDS011;3173;48.204;11.612;2022-07-24T14:22:49;5.77;;;5.20;;
6280;SDS011;3173;48.204;11.612;2022-07-24T14:25:15;8.83;;;5.20;;
6280;SDS011;3173;48.204;11.612;2022-07-24T14:27:41;5.27;;;4.87;;
6280;SDS011;3173;48.204;11.612;2022-07-24T14:30:07;6.20;;;5.20;;
6280;SDS011;3173;48.204;11.612;2022-07-24T14:32:34;5.77;;;5.10;;
6280;SDS011;3173;48.204;11.612;2022-07-24T14:35:00;6.10;;;5.50;;
6280;SDS011;3173;48.204;11.612;2022-07-24T14:37:30;6.00;;;5.40;;
6280;SDS011;3173;48.204;11.612;2022-07-24T14:39:56;9.63;;;4.10;;
6280;SDS011;3173;48.204;11.612;2022-07-24T14:42:22;9.10;;;5.63;;
6280;SDS011;3173;48.204;11.612;2022-07-24T14:44:47;6.20;;;5.57;;
6280;SDS011;3173;48.204;11.612;2022-07-24T14:47:14;6.67;;;5.70;;
6280;SDS011;3173;48.204;11.612;2022-07-24T14:49:40;6.40;;;5.00;;
6280;SDS011;3173;48.204;11.612;2022-07-24T14:52:06;9.33;;;4.73;;
6280;SDS011;3173;48.204;11.612;2022-07-24T14:54:32;7.03;;;5.63;;
6280;SDS011;3173;48.204;11.612;2022-07-24T14:56:57;8.20;;;5.60;;
6280;SDS011;3173;48.204;11.612;2022-07-24T14:59:25;5.90;;;5.03;;
6280;SDS011;3173;48.204;11.612;2022-07-24T15:01:51;8.63;;;5.03;;
6280;SDS011;3173;48.204;11.612;2022-07-24T15:04:17;10.40;;;5.97;;
6280;SDS011;3173;48.204;11.612;2022-07-24T15:06:43;5.70;;;5.10;;
6280;SDS011;3173;48.204;11.612;2022-07-24T15:09:09;5.47;;;4.97;;
6280;SDS011;3173;48.204;11.612;2022-07-24T15:11:35;7.93;;;5.17;;
6280;SDS011;3173;48.204;11.612;2022-07-24T15:14:02;6.60;;;5.50;;